Attica, Michigan
Current Conditions -  °F | °C
As of 11:33 AM on Sunday 21 Dec 2014 (Local Time) from KD95 Reporting Station
Overcast Overcast  
Wind Chill: 24°   Ceiling: 6000
Heat Index: 31°   Visibility: 10mi
Dew Point: 24°   Wind: 7mph
Humidity: 75%   Direction: 170°S
Pressure: 30.28"   Gusts: NA
Location:  43.03°N, 83.17°W
Report Text: KD95 211633Z AUTO 17006KT 10SM OVC060 00/M04 A3028 RMK AO2 T10051045
Loading
Personal Weather Stations






























Interactive Weather Map New forecast layout! Learn more

10-Day Weather Forecast

Advertisements
Track Severe Weather on mobile